Time;durP1;ratioP1;P1;durP2;ratioP2;P2;SDS_P1;SDS_P2;PMS_P1;PMS_P2;Temp;Humidity;BMP_temperature;BMP_pressure;BME280_temperature;BME280_humidity;BME280_pressure;Samples;Min_cycle;Max_cycle;Signal;HPM_P1;HPM_P2
2022/10/02 00:02:38;;;;;;;2.20;1.90;;;12.70;99.90;;;;;;6227538;23;20218;-84
2022/10/02 00:05:14;;;;;;;2.95;1.80;;;12.60;99.90;;;;;;6196771;23;20236;-85
2022/10/02 00:08:01;;;;;;;3.20;2.00;;;12.70;99.90;;;;;;6219651;23;20162;-81
2022/10/02 00:10:35;;;;;;;2.15;1.30;;;12.60;99.90;;;;;;6220449;23;20191;-84
2022/10/02 00:13:07;;;;;;;2.00;1.80;;;12.70;99.90;;;;;;6219315;23;20415;-82
2022/10/02 00:15:36;;;;;;;2.40;1.98;;;12.60;99.90;;;;;;6220178;23;20230;-83
2022/10/02 00:18:13;;;;;;;2.95;2.40;;;12.60;99.90;;;;;;6221629;23;20251;-85
2022/10/02 00:21:03;;;;;;;2.95;2.65;;;12.70;99.90;;;;;;6221171;23;20180;-85
2022/10/02 00:23:33;;;;;;;2.03;1.70;;;12.60;99.90;;;;;;6220812;23;20187;-82
2022/10/02 00:26:13;;;;;;;2.03;1.83;;;12.60;99.90;;;;;;6222253;23;20168;-84
2022/10/02 00:29:05;;;;;;;1.70;1.60;;;12.60;99.90;;;;;;6222575;23;20697;-87
2022/10/02 00:31:47;;;;;;;5.65;2.03;;;12.60;99.90;;;;;;6222356;23;20192;-85
2022/10/02 00:34:29;;;;;;;2.13;1.40;;;12.60;99.90;;;;;;6195836;23;20195;-80
2022/10/02 00:37:14;;;;;;;1.67;1.58;;;12.70;99.90;;;;;;6195020;23;20196;-84
2022/10/02 00:39:50;;;;;;;5.13;2.70;;;12.70;99.90;;;;;;6219860;23;20471;-81
2022/10/02 00:42:52;;;;;;;1.67;1.52;;;12.70;99.90;;;;;;6222626;23;20171;-87
2022/10/02 00:45:36;;;;;;;6.13;1.77;;;12.70;99.90;;;;;;6234200;23;20187;-85
2022/10/02 00:48:39;;;;;;;4.85;2.58;;;12.70;99.90;;;;;;6232027;23;20169;-82
2022/10/02 00:51:10;;;;;;;2.75;2.55;;;12.70;99.90;;;;;;6233677;23;20473;-85
2022/10/02 00:54:14;;;;;;;2.60;2.00;;;12.70;99.90;;;;;;6233803;23;20172;-85
2022/10/02 00:57:06;;;;;;;3.92;2.70;;;12.60;99.90;;;;;;6228478;23;20191;-84
2022/10/02 01:00:09;;;;;;;4.38;1.83;;;12.60;99.90;;;;;;6222472;23;20191;-85
2022/10/02 01:03:04;;;;;;;2.78;2.58;;;12.60;99.90;;;;;;6219534;23;20171;-84
2022/10/02 01:05:33;;;;;;;2.97;1.73;;;12.60;99.90;;;;;;6220649;23;20234;-83
2022/10/02 01:08:01;;;;;;;8.52;1.80;;;12.60;99.90;;;;;;6223112;23;20191;-83
2022/10/02 01:10:29;;;;;;;4.55;1.77;;;12.50;99.90;;;;;;6225305;23;20195;-84
2022/10/02 01:12:56;;;;;;;4.25;2.30;;;12.50;99.90;;;;;;6225975;23;20179;-85
2022/10/02 01:15:32;;;;;;;2.47;1.70;;;12.50;99.90;;;;;;6224772;23;20184;-82
2022/10/02 01:18:01;;;;;;;3.65;2.72;;;12.50;99.90;;;;;;6226141;23;20222;-79
2022/10/02 01:20:41;;;;;;;2.55;1.70;;;12.40;99.90;;;;;;6225668;23;20202;-84
2022/10/02 01:23:25;;;;;;;2.45;1.40;;;12.40;99.90;;;;;;6221374;23;20183;-84
2022/10/02 01:25:52;;;;;;;2.13;1.67;;;12.40;99.90;;;;;;6219894;23;20172;-84
2022/10/02 01:28:21;;;;;;;5.97;2.75;;;12.20;99.90;;;;;;6220491;23;20398;-82
2022/10/02 01:30:52;;;;;;;3.10;2.80;;;12.20;99.90;;;;;;6193899;23;20200;-83
2022/10/02 01:33:21;;;;;;;1.70;1.58;;;12.20;99.90;;;;;;6219799;23;20517;-82
2022/10/02 01:35:51;;;;;;;2.05;1.55;;;12.20;99.90;;;;;;6137276;23;1331484;-86
2022/10/02 01:38:22;;;;;;;2.90;1.88;;;12.30;99.90;;;;;;6220914;23;20176;-87
2022/10/02 01:40:49;;;;;;;2.50;1.75;;;12.30;99.90;;;;;;6220863;23;20222;-85
2022/10/02 01:43:17;;;;;;;1.75;1.63;;;12.30;99.90;;;;;;6224674;23;20179;-87
2022/10/02 01:46:00;;;;;;;3.42;2.00;;;12.30;99.90;;;;;;6220644;23;20246;-86
2022/10/02 01:48:54;;;;;;;5.00;1.70;;;12.20;99.90;;;;;;6220162;23;20206;-82
2022/10/02 01:51:32;;;;;;;3.95;1.73;;;12.20;99.90;;;;;;6219744;23;20238;-86
2022/10/02 01:54:18;;;;;;;1.98;1.70;;;12.10;99.90;;;;;;6220309;23;20521;-87
2022/10/02 01:57:22;;;;;;;5.22;2.40;;;12.00;99.90;;;;;;6218251;23;20191;-85
2022/10/02 02:00:07;;;;;;;6.03;1.58;;;12.00;99.90;;;;;;6221191;23;20210;-85
2022/10/02 02:02:52;;;;;;;2.03;1.35;;;12.00;99.90;;;;;;6220522;23;20168;-86
2022/10/02 02:05:25;;;;;;;3.20;2.00;;;12.10;99.90;;;;;;6197338;23;20187;-84
2022/10/02 02:08:09;;;;;;;2.80;1.98;;;12.00;99.90;;;;;;6230772;23;20340;-83
2022/10/02 02:10:39;;;;;;;2.10;1.70;;;11.90;99.90;;;;;;6231042;23;20219;-84
2022/10/02 02:13:22;;;;;;;4.20;1.63;;;11.90;99.90;;;;;;6222721;23;20183;-85
2022/10/02 02:16:00;;;;;;;5.47;2.00;;;11.90;99.90;;;;;;6221482;23;20160;-83
2022/10/02 02:18:59;;;;;;;2.45;1.95;;;11.90;99.90;;;;;;6219741;23;20247;-82
2022/10/02 02:21:34;;;;;;;7.25;2.17;;;12.00;99.90;;;;;;6215660;23;20487;-80
2022/10/02 02:24:05;;;;;;;3.10;1.65;;;12.00;99.90;;;;;;6220065;23;20220;-81
2022/10/02 02:26:33;;;;;;;1.73;1.63;;;12.00;99.90;;;;;;6228704;23;20214;-82
2022/10/02 02:29:05;;;;;;;3.55;2.17;;;12.10;99.90;;;;;;6239630;23;20185;-81
2022/10/02 02:31:40;;;;;;;5.00;1.73;;;12.10;99.90;;;;;;6241407;23;20164;-80
2022/10/02 02:34:12;;;;;;;1.30;1.20;;;12.20;99.90;;;;;;6227427;23;20168;-84
2022/10/02 02:36:43;;;;;;;1.70;1.60;;;12.20;99.90;;;;;;6220451;23;20814;-84
2022/10/02 02:39:18;;;;;;;1.98;1.35;;;12.20;99.90;;;;;;6220096;23;20226;-84
2022/10/02 02:41:50;;;;;;;12.93;2.08;;;12.20;99.90;;;;;;6219973;23;20175;-80
2022/10/02 02:44:23;;;;;;;1.90;1.80;;;12.30;99.90;;;;;;6219437;23;20225;-87
2022/10/02 02:47:10;;;;;;;3.95;1.67;;;12.20;99.90;;;;;;6221977;23;20171;-87
2022/10/02 02:49:58;;;;;;;1.83;1.42;;;12.20;99.90;;;;;;6221451;23;20214;-83
2022/10/02 02:52:45;;;;;;;3.95;1.23;;;12.20;99.90;;;;;;6221001;23;20211;-83
2022/10/02 02:55:24;;;;;;;6.63;1.60;;;12.30;99.90;;;;;;6192401;23;20364;-82
2022/10/02 02:58:11;;;;;;;6.63;2.55;;;12.20;99.90;;;;;;6218820;23;20160;-85
2022/10/02 03:00:38;;;;;;;1.30;1.20;;;12.10;99.90;;;;;;6219151;23;20179;-84
2022/10/02 03:03:05;;;;;;;3.00;1.73;;;12.00;99.90;;;;;;6219023;23;20187;-84
2022/10/02 03:05:41;;;;;;;5.97;2.65;;;11.80;99.90;;;;;;6219747;23;20273;-82
2022/10/02 03:08:21;;;;;;;2.00;1.70;;;11.60;99.90;;;;;;6194825;23;20183;-85
2022/10/02 03:11:18;;;;;;;3.47;2.72;;;11.50;99.90;;;;;;6221872;23;20245;-85
2022/10/02 03:14:22;;;;;;;2.05;1.30;;;11.40;99.90;;;;;;6232362;23;20195;-81
2022/10/02 03:17:07;;;;;;;5.00;1.58;;;11.30;99.90;;;;;;6242679;23;20156;-82
2022/10/02 03:19:46;;;;;;;4.53;2.17;;;11.20;99.90;;;;;;6241144;23;20164;-82
2022/10/02 03:22:45;;;;;;;2.10;1.80;;;11.20;99.90;;;;;;6236803;23;20155;-81
2022/10/02 03:25:20;;;;;;;4.03;2.70;;;11.10;99.90;;;;;;6221414;23;20218;-80
2022/10/02 03:28:05;;;;;;;4.50;2.45;;;11.20;99.90;;;;;;6220605;23;20178;-81
2022/10/02 03:30:35;;;;;;;4.25;2.30;;;11.30;99.90;;;;;;6224664;23;20447;-82
2022/10/02 03:33:05;;;;;;;3.80;1.95;;;11.20;99.90;;;;;;6218601;23;20183;-80
2022/10/02 03:35:32;;;;;;;4.10;2.55;;;11.10;99.90;;;;;;6219636;23;20246;-84
2022/10/02 03:38:04;;;;;;;3.28;2.25;;;11.00;99.90;;;;;;6219520;23;20207;-84
2022/10/02 03:40:31;;;;;;;4.53;2.80;;;11.00;99.90;;;;;;6218745;23;20160;-84
2022/10/02 03:42:59;;;;;;;6.00;2.33;;;11.00;99.90;;;;;;6219332;23;20356;-83
2022/10/02 03:45:27;;;;;;;7.97;2.50;;;11.10;99.90;;;;;;6220580;23;20190;-82
2022/10/02 03:48:15;;;;;;;6.22;2.90;;;11.10;99.90;;;;;;6226067;23;20171;-83
2022/10/02 03:50:43;;;;;;;3.30;2.67;;;11.10;99.90;;;;;;6202818;23;20195;-81
2022/10/02 03:53:23;;;;;;;3.78;3.00;;;11.00;99.90;;;;;;6235077;23;20163;-85
2022/10/02 03:55:59;;;;;;;3.55;2.85;;;11.00;99.90;;;;;;6234256;23;20213;-84
2022/10/02 03:58:26;;;;;;;9.07;4.05;;;11.20;99.90;;;;;;6236266;23;20171;-82
2022/10/02 04:00:58;;;;;;;2.38;1.98;;;11.40;99.90;;;;;;6228304;23;20706;-81
2022/10/02 04:03:34;;;;;;;6.13;2.75;;;11.50;99.90;;;;;;6219602;23;20559;-82
2022/10/02 04:06:07;;;;;;;5.25;2.42;;;11.40;99.90;;;;;;6192751;23;20195;-83
2022/10/02 04:08:49;;;;;;;10.63;4.57;;;11.40;99.90;;;;;;6217845;23;20368;-82
2022/10/02 04:11:35;;;;;;;9.73;4.53;;;11.50;99.90;;;;;;6219786;23;20216;-81
2022/10/02 04:14:43;;;;;;;3.95;2.67;;;11.60;99.90;;;;;;6218126;23;20615;-81
2022/10/02 04:17:43;;;;;;;4.53;2.20;;;11.70;99.90;;;;;;6217858;23;20367;-82
2022/10/02 04:20:22;;;;;;;3.42;2.17;;;11.70;99.90;;;;;;6218337;23;20187;-81
2022/10/02 04:22:54;;;;;;;2.42;2.22;;;11.80;99.90;;;;;;6218513;23;20517;-81
2022/10/02 04:25:28;;;;;;;4.82;2.50;;;11.80;99.90;;;;;;6218734;23;20218;-83
2022/10/02 04:28:03;;;;;;;3.67;2.03;;;11.70;99.90;;;;;;6217879;23;20179;-81
2022/10/02 04:30:31;;;;;;;3.35;2.22;;;11.80;99.90;;;;;;6217668;23;20174;-82
2022/10/02 04:33:10;;;;;;;3.97;2.38;;;11.80;99.90;;;;;;6217949;23;20187;-81
2022/10/02 04:36:01;;;;;;;3.45;2.90;;;11.60;99.90;;;;;;6218235;23;20374;-82
2022/10/02 04:38:41;;;;;;;4.63;2.65;;;11.50;99.90;;;;;;6200396;23;20491;-81
2022/10/02 04:41:30;;;;;;;7.72;2.28;;;11.50;99.90;;;;;;6217576;23;20171;-81
2022/10/02 04:44:25;;;;;;;5.22;2.13;;;11.30;99.90;;;;;;6218210;23;20223;-81
2022/10/02 04:47:23;;;;;;;2.35;1.92;;;11.30;99.90;;;;;;6218202;23;20172;-81
2022/10/02 04:50:09;;;;;;;6.00;2.15;;;11.30;99.90;;;;;;6217693;23;20188;-81
2022/10/02 04:53:11;;;;;;;2.53;2.30;;;11.40;99.90;;;;;;6218116;23;20192;-81
2022/10/02 04:55:55;;;;;;;4.55;2.45;;;11.50;99.90;;;;;;6217470;23;20207;-81
2022/10/02 04:58:28;;;;;;;9.43;2.55;;;11.60;99.90;;;;;;6217442;23;20178;-82
2022/10/02 05:01:07;;;;;;;3.80;2.45;;;11.60;99.90;;;;;;6218284;23;20218;-82
2022/10/02 05:03:50;;;;;;;4.63;2.10;;;11.50;99.90;;;;;;6218792;23;20167;-83
2022/10/02 05:06:44;;;;;;;6.15;3.65;;;11.50;99.90;;;;;;6219358;23;20164;-80
2022/10/02 05:09:24;;;;;;;3.22;2.17;;;11.40;99.90;;;;;;6218853;23;20160;-82
2022/10/02 05:12:18;;;;;;;7.57;3.00;;;11.40;99.90;;;;;;6219595;23;20232;-85
2022/10/02 05:15:16;;;;;;;4.25;1.80;;;11.50;99.90;;;;;;6219737;23;20167;-82
2022/10/02 05:18:00;;;;;;;5.60;1.98;;;11.70;99.90;;;;;;6219009;23;20214;-82
2022/10/02 05:20:55;;;;;;;7.13;2.90;;;11.80;99.90;;;;;;6219722;23;20677;-81
2022/10/02 05:23:53;;;;;;;6.35;2.10;;;11.90;99.90;;;;;;6220348;23;20171;-82
2022/10/02 05:26:47;;;;;;;5.82;2.50;;;12.00;99.90;;;;;;6230377;23;20183;-80
2022/10/02 05:29:30;;;;;;;3.50;2.13;;;12.10;99.90;;;;;;6199101;23;20164;-82
2022/10/02 05:31:59;;;;;;;3.03;1.70;;;12.10;99.90;;;;;;6223516;23;20192;-83
2022/10/02 05:34:53;;;;;;;2.60;2.00;;;12.20;99.90;;;;;;6224081;23;20172;-82
2022/10/02 05:37:39;;;;;;;11.43;3.22;;;12.40;99.90;;;;;;6196993;23;20191;-83
2022/10/02 05:40:23;;;;;;;4.10;1.63;;;12.50;99.90;;;;;;6221728;23;20164;-83
2022/10/02 05:42:53;;;;;;;6.22;2.33;;;12.60;99.90;;;;;;6220890;23;20332;-83
2022/10/02 05:45:42;;;;;;;6.15;1.92;;;12.60;99.90;;;;;;6220329;23;20176;-82
2022/10/02 05:48:16;;;;;;;4.85;1.95;;;12.60;99.90;;;;;;6221499;23;20222;-80
2022/10/02 05:50:49;;;;;;;4.20;2.33;;;12.70;99.90;;;;;;6221831;23;20159;-82
2022/10/02 05:53:51;;;;;;;3.90;2.30;;;12.90;99.90;;;;;;6169666;23;20172;-81
2022/10/02 05:56:34;;;;;;;9.27;2.30;;;13.00;99.90;;;;;;6220706;23;20218;-81
2022/10/02 05:59:12;;;;;;;5.70;2.10;;;13.00;99.90;;;;;;6193375;23;20190;-82
2022/10/02 06:01:43;;;;;;;5.78;1.75;;;13.00;99.90;;;;;;6222193;23;20214;-80
2022/10/02 06:04:13;;;;;;;3.25;1.60;;;13.00;99.90;;;;;;6226842;23;20507;-80
2022/10/02 06:06:46;;;;;;;3.72;1.50;;;13.20;99.90;;;;;;6197045;23;20247;-80
2022/10/02 06:09:26;;;;;;;5.03;1.90;;;13.30;99.90;;;;;;6221380;23;20243;-80
2022/10/02 06:12:11;;;;;;;2.00;1.50;;;13.50;99.90;;;;;;6195975;23;20250;-83
2022/10/02 06:14:52;;;;;;;1.80;1.65;;;13.70;99.90;;;;;;6237601;23;20180;-81
2022/10/02 06:17:30;;;;;;;2.15;1.45;;;13.80;99.90;;;;;;6242224;23;20199;-81
2022/10/02 06:20:20;;;;;;;5.88;1.75;;;13.90;99.90;;;;;;6234058;23;20183;-85
2022/10/02 06:23:13;;;;;;;9.35;4.35;;;14.10;99.90;;;;;;6221921;23;20172;-81
2022/10/02 06:25:46;;;;;;;5.25;2.03;;;14.00;99.90;;;;;;6221215;23;20185;-83
2022/10/02 06:28:34;;;;;;;4.75;2.20;;;13.90;99.90;;;;;;6221796;23;20173;-83
2022/10/02 06:31:20;;;;;;;6.43;2.08;;;13.80;99.90;;;;;;6222823;23;20168;-84
2022/10/02 06:33:47;;;;;;;3.75;1.52;;;13.80;99.90;;;;;;6221990;23;20177;-84
2022/10/02 06:36:38;;;;;;;6.13;2.13;;;13.90;99.90;;;;;;6220425;23;20250;-85
2022/10/02 06:39:45;;;;;;;11.82;3.05;;;14.20;99.90;;;;;;6220636;23;20201;-81
2022/10/02 06:42:31;;;;;;;2.80;1.95;;;14.70;99.90;;;;;;6220413;23;20164;-81
2022/10/02 06:45:32;;;;;;;3.90;2.13;;;15.30;99.90;;;;;;6220962;23;20227;-81
2022/10/02 06:48:18;;;;;;;5.70;1.90;;;15.20;99.90;;;;;;6221733;23;20249;-81
2022/10/02 06:51:08;;;;;;;4.13;2.03;;;15.10;99.90;;;;;;6220421;23;20388;-82
2022/10/02 06:54:01;;;;;;;25.83;2.53;;;15.20;99.90;;;;;;6221365;23;20375;-83
2022/10/02 06:56:53;;;;;;;3.65;1.85;;;15.00;99.90;;;;;;6222695;23;20400;-84
2022/10/02 07:00:00;;;;;;;3.10;1.60;;;14.60;99.90;;;;;;6226650;23;20253;-84
2022/10/02 07:03:08;;;;;;;5.63;1.60;;;14.60;99.90;;;;;;6236100;23;20376;-83
2022/10/02 07:06:11;;;;;;;11.97;2.07;;;14.70;99.90;;;;;;6234241;23;20414;-82
2022/10/02 07:09:14;;;;;;;11.67;3.40;;;15.40;99.90;;;;;;6197482;23;20397;-82
2022/10/02 07:11:54;;;;;;;3.93;2.40;;;16.30;99.90;;;;;;6222708;23;20435;-81
2022/10/02 07:14:52;;;;;;;4.40;1.73;;;16.20;99.90;;;;;;6222796;23;20621;-84
2022/10/02 07:17:46;;;;;;;7.43;2.90;;;16.30;99.90;;;;;;6222335;23;20374;-82
2022/10/02 07:20:36;;;;;;;3.90;1.47;;;17.10;99.90;;;;;;6221271;23;20378;-80
2022/10/02 07:23:35;;;;;;;7.67;1.60;;;18.70;99.90;;;;;;6221491;23;20592;-81
2022/10/02 07:26:20;;;;;;;4.30;2.00;;;20.10;99.90;;;;;;6220461;23;20795;-84
2022/10/02 07:28:58;;;;;;;4.90;2.10;;;21.60;99.90;;;;;;6223162;23;20789;-80
2022/10/02 07:31:57;;;;;;;7.73;1.63;;;22.10;99.90;;;;;;6223551;23;20424;-82
2022/10/02 07:34:33;;;;;;;2.57;1.93;;;21.80;99.90;;;;;;6171814;23;20401;-83
2022/10/02 07:37:21;;;;;;;2.83;2.57;;;22.30;99.90;;;;;;6201498;23;20439;-84
2022/10/02 07:40:37;;;;;;;4.10;1.50;;;22.80;99.90;;;;;;6226142;23;20399;-84
2022/10/02 07:43:19;;;;;;;3.50;1.57;;;21.70;99.90;;;;;;6201995;23;20919;-83
2022/10/02 07:46:24;;;;;;;2.83;1.80;;;22.10;99.90;;;;;;6229751;23;20389;-84
2022/10/02 07:49:15;;;;;;;9.20;2.03;;;23.20;99.90;;;;;;6224693;23;20782;-84
2022/10/02 07:51:53;;;;;;;4.33;1.70;;;22.00;99.90;;;;;;6231004;23;20484;-87
2022/10/02 07:55:10;;;;;;;4.83;2.30;;;20.30;99.90;;;;;;6232602;23;20375;-90
2022/10/02 07:58:17;;;;;;;4.83;1.80;;;18.80;99.90;;;;;;6120230;23;20424;-84
2022/10/02 08:00:55;;;;;;;7.37;1.90;;;17.80;99.90;;;;;;6187257;22;20466;-84
2022/10/02 08:03:26;;;;;;;3.43;1.80;;;17.20;99.90;;;;;;6267950;22;20373;-82
2022/10/02 08:05:55;;;;;;;2.00;1.13;;;16.60;99.90;;;;;;6265587;22;20411;-82
2022/10/02 08:08:37;;;;;;;3.00;1.80;;;16.30;99.90;;;;;;6229544;23;20404;-86
2022/10/02 08:11:21;;;;;;;3.37;2.07;;;16.30;99.90;;;;;;6254429;23;20380;-82
2022/10/02 08:14:06;;;;;;;6.40;2.33;;;16.00;99.90;;;;;;6255440;23;20422;-84
2022/10/02 08:16:40;;;;;;;6.53;1.27;;;15.90;99.90;;;;;;6254772;23;20776;-84
2022/10/02 08:19:17;;;;;;;10.23;2.30;;;15.90;99.90;;;;;;6255137;23;20415;-88
2022/10/02 08:21:49;;;;;;;3.20;2.00;;;16.10;99.90;;;;;;6257419;23;20376;-82
2022/10/02 08:24:26;;;;;;;3.77;1.73;;;16.30;99.90;;;;;;6269451;22;20377;-85
2022/10/02 08:27:05;;;;;;;5.00;3.13;;;16.40;99.90;;;;;;6261766;23;20375;-87
2022/10/02 08:29:48;;;;;;;5.10;2.20;;;16.60;99.90;;;;;;6260665;23;20434;-87
2022/10/02 08:32:21;;;;;;;2.97;1.70;;;16.70;99.90;;;;;;6260697;23;20439;-86
2022/10/02 08:34:51;;;;;;;3.27;1.50;;;16.70;99.90;;;;;;6258655;23;20447;-88
2022/10/02 08:37:18;;;;;;;3.13;1.77;;;16.90;99.90;;;;;;6235240;23;20614;-84
2022/10/02 08:40:23;;;;;;;4.00;2.00;;;16.90;99.90;;;;;;6263706;23;20393;-86
2022/10/02 08:43:20;;;;;;;2.90;2.37;;;16.70;99.90;;;;;;6236553;23;20352;-87
2022/10/02 08:46:05;;;;;;;4.53;2.33;;;17.30;99.90;;;;;;6259292;23;20382;-89
2022/10/02 08:49:17;;;;;;;6.00;1.70;;;18.10;99.90;;;;;;6258308;23;20370;-85
2022/10/02 08:52:30;;;;;;;4.70;2.43;;;18.80;99.90;;;;;;6232713;23;20439;-85
2022/10/02 08:55:25;;;;;;;3.07;1.53;;;18.40;99.90;;;;;;6215341;23;20362;-85
2022/10/02 08:58:31;;;;;;;3.57;1.50;;;18.10;99.90;;;;;;6259146;23;20372;-87
2022/10/02 09:01:37;;;;;;;2.73;1.40;;;17.80;99.90;;;;;;6254123;23;20412;-87
2022/10/02 09:04:37;;;;;;;6.00;1.60;;;17.90;99.90;;;;;;6232439;23;20450;-89
2022/10/02 09:07:28;;;;;;;4.10;1.93;;;18.30;99.90;;;;;;6234825;23;20376;-87
2022/10/02 09:10:30;;;;;;;2.87;1.47;;;18.20;99.90;;;;;;6258690;23;20451;-86
2022/10/02 09:13:27;;;;;;;3.03;1.87;;;17.80;99.90;;;;;;6234401;23;20428;-86
2022/10/02 09:16:19;;;;;;;4.27;2.10;;;17.80;99.90;;;;;;6252573;23;20710;-83
2022/10/02 09:19:11;;;;;;;6.40;1.87;;;17.90;99.90;;;;;;6253627;23;20960;-81
2022/10/02 09:21:49;;;;;;;1.20;0.97;;;17.90;99.90;;;;;;6255725;23;20385;-81
2022/10/02 09:24:50;;;;;;;2.40;1.47;;;17.90;99.90;;;;;;6254450;23;20367;-81
2022/10/02 09:28:02;;;;;;;2.80;1.37;;;17.90;99.90;;;;;;6228017;23;20392;-86
2022/10/02 09:31:02;;;;;;;0.90;0.90;;;17.70;99.90;;;;;;6219486;23;20765;-84
2022/10/02 09:33:49;;;;;;;3.37;1.70;;;17.80;99.90;;;;;;6253159;23;20451;-83
2022/10/02 09:36:43;;;;;;;2.67;1.50;;;17.90;99.90;;;;;;6254216;23;20377;-89
2022/10/02 09:39:34;;;;;;;4.40;1.80;;;18.10;99.90;;;;;;6261261;23;20389;-86
2022/10/02 09:42:39;;;;;;;2.60;1.47;;;18.60;99.90;;;;;;6261710;23;20440;-84
2022/10/02 09:45:53;;;;;;;2.33;1.30;;;19.00;99.90;;;;;;6257131;23;20369;-85
2022/10/02 09:48:34;;;;;;;5.47;1.63;;;19.00;99.90;;;;;;6233051;23;20351;-85
2022/10/02 09:51:27;;;;;;;6.80;2.10;;;18.80;99.90;;;;;;6261289;23;20380;-87
2022/10/02 09:54:05;;;;;;;2.90;1.50;;;18.80;99.90;;;;;;6191817;23;20423;-84
2022/10/02 09:57:11;;;;;;;2.67;1.43;;;18.90;99.90;;;;;;6245181;22;20384;-88
2022/10/02 10:03:12;;;;;;;8.90;2.03;;;18.80;99.90;;;;;;6225680;23;20444;-87
2022/10/02 10:05:43;;;;;;;2.50;1.50;;;18.70;99.90;;;;;;6227802;23;20368;-86
2022/10/02 10:08:53;;;;;;;5.93;2.27;;;18.50;99.90;;;;;;6202774;23;20389;-86
2022/10/02 10:11:42;;;;;;;1.63;1.37;;;18.70;99.90;;;;;;6230094;23;20385;-85
2022/10/02 10:14:47;;;;;;;2.50;1.73;;;18.90;99.90;;;;;;6228878;23;20592;-83
2022/10/02 10:17:52;;;;;;;6.83;1.67;;;18.80;99.90;;;;;;6225893;23;20378;-87
2022/10/02 10:20:57;;;;;;;1.63;1.53;;;18.50;99.90;;;;;;6224549;23;20792;-85
2022/10/02 10:23:35;;;;;;;4.43;2.50;;;18.20;99.90;;;;;;6227968;23;20413;-84
2022/10/02 10:26:33;;;;;;;3.20;2.10;;;17.90;99.90;;;;;;6226258;23;20400;-85
2022/10/02 10:29:58;;;;;;;4.57;2.17;;;17.40;99.90;;;;;;6227178;23;20397;-83
2022/10/02 10:32:29;;;;;;;6.87;2.70;;;16.90;99.90;;;;;;6098419;23;20441;-85
2022/10/02 10:35:35;;;;;;;8.43;3.20;;;16.60;99.90;;;;;;6201001;23;20405;-87
2022/10/02 10:40:59;;;;;;;7.73;3.03;;;16.70;99.90;;;;;;6142332;23;20659;-84
2022/10/02 10:43:57;;;;;;;6.40;2.70;;;16.60;99.90;;;;;;6199673;23;20390;-88
2022/10/02 10:49:11;;;;;;;2.70;1.80;;;16.70;99.90;;;;;;6169728;23;20267;-86
2022/10/02 10:54:43;;;;;;;5.93;2.50;;;17.00;99.90;;;;;;6199771;23;20455;-82
2022/10/02 10:57:25;;;;;;;2.10;1.90;;;17.00;99.90;;;;;;6200640;23;20370;-86
2022/10/02 11:00:18;;;;;;;4.63;1.53;;;16.90;99.90;;;;;;6201717;23;20398;-84
2022/10/02 11:03:18;;;;;;;7.30;2.57;;;16.90;99.90;;;;;;6200804;23;20390;-87
2022/10/02 11:06:11;;;;;;;6.93;2.90;;;16.80;99.90;;;;;;6176122;23;20412;-88
2022/10/02 11:09:08;;;;;;;7.53;3.60;;;16.90;99.90;;;;;;6174381;23;20405;-88
2022/10/02 11:11:54;;;;;;;5.77;2.50;;;17.10;99.90;;;;;;6203419;23;20739;-88
2022/10/02 11:14:51;;;;;;;6.47;2.13;;;17.50;99.90;;;;;;6200532;23;20406;-84
2022/10/02 11:17:55;;;;;;;6.10;3.27;;;17.80;99.90;;;;;;6206485;23;20451;-81
2022/10/02 11:21:04;;;;;;;3.60;1.93;;;17.70;99.90;;;;;;6189782;23;20655;-84
2022/10/02 11:23:56;;;;;;;8.20;2.13;;;17.80;99.90;;;;;;6239466;23;20409;-86
2022/10/02 11:26:59;;;;;;;2.47;1.50;;;18.20;99.90;;;;;;6240775;23;20389;-82
2022/10/02 11:30:04;;;;;;;10.30;3.10;;;18.50;99.90;;;;;;6238499;23;20446;-82
2022/10/02 11:32:58;;;;;;;1.70;1.60;;;18.70;99.90;;;;;;6231819;23;20768;-86
2022/10/02 11:35:47;;;;;;;8.53;1.73;;;18.60;99.90;;;;;;6231706;23;20381;-86
2022/10/02 11:38:58;;;;;;;5.23;1.60;;;18.50;99.90;;;;;;6234630;23;20406;-86
2022/10/02 11:41:47;;;;;;;1.97;1.77;;;18.50;99.90;;;;;;6232483;23;20352;-84
2022/10/02 11:44:41;;;;;;;4.83;1.93;;;18.30;99.90;;;;;;6201048;23;20418;-86
2022/10/02 11:47:33;;;;;;;3.47;1.90;;;18.50;99.90;;;;;;6229317;23;20489;-86
2022/10/02 11:50:47;;;;;;;5.90;1.87;;;18.60;99.90;;;;;;6226530;23;20457;-82
2022/10/02 11:53:35;;;;;;;2.40;1.67;;;18.60;99.90;;;;;;6229069;23;20477;-83
2022/10/02 11:56:05;;;;;;;7.70;2.17;;;18.50;99.90;;;;;;6223835;23;20360;-88
2022/10/02 11:58:52;;;;;;;8.30;1.47;;;18.20;99.90;;;;;;6225641;23;20516;-82
2022/10/02 12:01:44;;;;;;;4.23;1.50;;;17.90;99.90;;;;;;6226915;23;20384;-89
2022/10/02 12:04:51;;;;;;;5.17;2.87;;;17.70;99.90;;;;;;6225007;23;20432;-87
2022/10/02 12:07:43;;;;;;;6.90;1.60;;;17.80;99.90;;;;;;6225087;23;20356;-88
2022/10/02 12:10:42;;;;;;;4.30;1.63;;;18.00;99.90;;;;;;6201535;23;20449;-85
2022/10/02 12:13:25;;;;;;;8.53;2.37;;;17.90;99.90;;;;;;6205193;23;20448;-84
2022/10/02 12:15:55;;;;;;;3.67;2.00;;;17.80;99.90;;;;;;6232153;23;20431;-85
2022/10/02 12:18:55;;;;;;;3.73;1.90;;;17.70;99.90;;;;;;6230849;23;20401;-87
2022/10/02 12:27:44;;;;;;;2.70;1.57;;;17.30;99.90;;;;;;6228151;23;20409;-83
2022/10/02 12:30:15;;;;;;;7.20;1.57;;;17.00;99.90;;;;;;6225212;23;20561;-87
2022/10/02 12:33:07;;;;;;;3.00;2.47;;;16.60;99.90;;;;;;6230806;23;20425;-86
2022/10/02 12:36:04;;;;;;;4.20;2.10;;;15.90;99.90;;;;;;6228663;23;20873;-84
2022/10/02 12:39:03;;;;;;;3.83;2.60;;;15.10;99.90;;;;;;6230312;23;20475;-86
2022/10/02 12:41:57;;;;;;;5.43;1.50;;;14.80;99.90;;;;;;6209841;23;20416;-86
2022/10/02 12:44:57;;;;;;;1.53;1.37;;;14.70;99.90;;;;;;6234408;23;20526;-87
2022/10/02 12:58:37;;;;;;;1.45;1.13;;;14.80;99.90;;;;;;6246620;22;20206;-86
2022/10/02 13:06:58;;;;;;;1.40;1.30;;;15.30;99.90;;;;;;6211533;23;20527;-89
2022/10/02 13:09:52;;;;;;;1.27;1.17;;;15.60;99.90;;;;;;6203701;23;20386;-87
2022/10/02 13:12:31;;;;;;;1.37;1.27;;;15.80;99.90;;;;;;6230027;23;20393;-89
2022/10/02 13:15:23;;;;;;;2.07;1.27;;;16.00;99.90;;;;;;6235181;23;20471;-88
2022/10/02 13:18:15;;;;;;;2.80;1.80;;;15.70;99.90;;;;;;6234165;23;20390;-88
2022/10/02 13:21:03;;;;;;;2.87;1.60;;;15.50;99.90;;;;;;6233707;23;20454;-88
2022/10/02 13:23:59;;;;;;;1.63;1.50;;;15.70;99.90;;;;;;6233639;23;20450;-85
2022/10/02 13:26:55;;;;;;;1.93;1.20;;;15.80;99.90;;;;;;6232259;23;20419;-86
2022/10/02 13:29:51;;;;;;;1.30;1.20;;;15.70;99.90;;;;;;6234693;23;20374;-88
2022/10/02 13:32:41;;;;;;;2.13;1.50;;;16.00;99.90;;;;;;6233345;23;20389;-86
2022/10/02 13:35:38;;;;;;;2.73;2.00;;;16.10;99.90;;;;;;6233943;23;20385;-85
2022/10/02 13:38:45;;;;;;;1.90;1.80;;;16.00;99.90;;;;;;6243643;23;20399;-88
2022/10/02 13:41:31;;;;;;;4.93;2.33;;;15.80;99.90;;;;;;6243960;23;20360;-89
2022/10/02 13:44:25;;;;;;;2.50;2.17;;;15.70;99.90;;;;;;6265929;22;20434;-88
2022/10/02 13:47:21;;;;;;;2.30;1.83;;;15.60;99.90;;;;;;6251409;23;20355;-85
2022/10/02 13:50:20;;;;;;;1.63;1.53;;;15.50;99.90;;;;;;6269683;22;20397;-87
2022/10/02 13:53:03;;;;;;;3.37;1.63;;;15.50;99.90;;;;;;6268485;22;20414;-87
2022/10/02 13:55:37;;;;;;;4.77;2.10;;;15.60;99.90;;;;;;6265260;23;20388;-88
2022/10/02 13:58:16;;;;;;;1.73;1.60;;;15.60;99.90;;;;;;6236069;23;20375;-83
2022/10/02 14:01:21;;;;;;;1.70;1.60;;;15.50;99.90;;;;;;6233801;23;20387;-86
2022/10/02 14:04:20;;;;;;;2.33;1.50;;;15.30;99.90;;;;;;6259852;23;20455;-88
2022/10/02 14:07:21;;;;;;;2.60;2.00;;;15.10;99.90;;;;;;6264658;22;20393;-88
2022/10/02 14:10:17;;;;;;;6.50;2.80;;;15.20;99.90;;;;;;6257974;22;20405;-88
2022/10/02 14:13:09;;;;;;;2.07;1.67;;;15.20;99.90;;;;;;6271704;22;20385;-85
2022/10/02 14:16:16;;;;;;;3.30;1.80;;;15.20;99.90;;;;;;6271530;22;20382;-86
2022/10/02 14:18:54;;;;;;;4.53;2.20;;;15.30;99.90;;;;;;6233816;23;20592;-87
2022/10/02 14:21:37;;;;;;;2.90;2.40;;;15.40;99.90;;;;;;6226998;23;20665;-88
2022/10/02 14:24:58;;;;;;;1.83;1.70;;;15.60;99.90;;;;;;6255903;23;20387;-90
2022/10/02 14:27:47;;;;;;;2.60;1.90;;;15.60;99.90;;;;;;6246814;22;20399;-85
2022/10/02 14:30:28;;;;;;;2.83;1.73;;;15.40;99.90;;;;;;6240404;22;20801;-88
2022/10/02 14:33:06;;;;;;;3.50;1.90;;;15.60;99.90;;;;;;6240352;22;20383;-84
2022/10/02 14:35:39;;;;;;;3.72;2.42;;;15.50;99.90;;;;;;6267687;22;20383;-85
2022/10/02 14:38:33;;;;;;;3.23;1.80;;;15.60;99.90;;;;;;6267187;22;20180;-87
2022/10/02 14:41:31;;;;;;;3.07;1.70;;;15.80;99.90;;;;;;6235226;23;20419;-86
2022/10/02 14:44:08;;;;;;;7.70;1.83;;;16.20;99.90;;;;;;6256235;23;20502;-89
2022/10/02 14:47:03;;;;;;;10.50;2.77;;;16.70;99.90;;;;;;6255831;23;20419;-88
2022/10/02 14:50:28;;;;;;;9.50;2.40;;;16.90;99.90;;;;;;6255621;23;20497;-91
2022/10/02 14:53:25;;;;;;;4.03;1.73;;;17.10;99.90;;;;;;6206929;23;20423;-87
2022/10/02 14:56:44;;;;;;;2.70;2.40;;;17.30;99.90;;;;;;6232011;23;20400;-88
2022/10/02 14:59:49;;;;;;;7.77;2.47;;;17.40;99.90;;;;;;6237157;23;20403;-86
2022/10/02 15:02:47;;;;;;;4.47;2.00;;;17.40;99.90;;;;;;6258333;23;20351;-88